createdAt,value
2019-04-06T00:01:52.220Z,90.40
2019-04-06T00:04:25.030Z,90.30
2019-04-06T00:06:57.913Z,90.40
2019-04-06T00:09:30.728Z,90.30
2019-04-06T00:12:05.510Z,90.40
2019-04-06T00:14:40.347Z,90.10
2019-04-06T00:17:13.161Z,90.50
2019-04-06T00:19:46.008Z,90.40
2019-04-06T00:22:18.792Z,90.60
2019-04-06T00:24:51.630Z,90.90
2019-04-06T00:27:24.704Z,90.90
2019-04-06T00:29:57.773Z,90.60
2019-04-06T00:32:53.029Z,90.40
2019-04-06T00:35:25.841Z,90.60
2019-04-06T00:37:58.628Z,90.40
2019-04-06T00:40:31.469Z,90.40
2019-04-06T00:43:04.276Z,90.50
2019-04-06T00:45:37.114Z,90.60
2019-04-06T00:48:09.922Z,90.60
2019-04-06T00:50:43.100Z,90.80
2019-04-06T00:53:15.914Z,90.80
2019-04-06T00:55:55.668Z,90.80
2019-04-06T00:58:23.458Z,91.10
2019-04-06T01:00:56.307Z,90.10
2019-04-06T01:03:29.165Z,91.50
2019-04-06T01:06:02.072Z,90.90
2019-04-06T01:08:34.958Z,90.90
2019-04-06T01:11:07.786Z,90.80
2019-04-06T01:13:40.717Z,91.20
2019-04-06T01:16:13.781Z,91.00
2019-04-06T01:18:46.576Z,90.90
2019-04-06T01:21:20.506Z,91.00
2019-04-06T01:23:53.281Z,91.10
2019-04-06T01:26:26.093Z,90.70
2019-04-06T01:28:58.981Z,90.90
2019-04-06T01:31:31.809Z,91.00
2019-04-06T01:34:04.581Z,91.10
2019-04-06T01:36:37.416Z,91.30
2019-04-06T01:39:10.224Z,91.40
2019-04-06T01:41:43.051Z,92.10
2019-04-06T01:44:15.976Z,91.10
2019-04-06T01:46:48.815Z,91.30
2019-04-06T01:49:21.619Z,91.00
2019-04-06T01:51:54.435Z,91.10
2019-04-06T01:54:28.255Z,91.30
2019-04-06T01:57:01.084Z,91.50
2019-04-06T01:59:33.887Z,91.20
2019-04-06T02:02:23.092Z,90.90
2019-04-06T02:04:56.120Z,90.50
2019-04-06T02:07:28.993Z,90.70
2019-04-06T02:10:01.797Z,90.60
2019-04-06T02:12:35.953Z,90.60
2019-04-06T02:15:09.262Z,90.80
2019-04-06T02:17:42.111Z,91.50
2019-04-06T02:20:14.899Z,90.50
2019-04-06T02:22:47.859Z,90.70
2019-04-06T02:25:21.784Z,90.70
2019-04-06T02:27:54.592Z,91.10
2019-04-06T02:30:32.792Z,91.20
2019-04-06T02:33:22.325Z,91.30
2019-04-06T02:36:23.476Z,91.30
2019-04-06T02:39:07.696Z,91.00
2019-04-06T02:41:54.265Z,91.30
2019-04-06T02:44:27.110Z,91.00
2019-04-06T02:47:00.113Z,91.00
2019-04-06T02:49:34.049Z,90.80
2019-04-06T02:52:06.871Z,91.30
2019-04-06T02:54:39.897Z,91.00
2019-04-06T02:57:12.817Z,91.20
2019-04-06T02:59:45.625Z,91.60
2019-04-06T03:02:18.555Z,91.40
2019-04-06T03:04:51.325Z,91.80
2019-04-06T03:07:24.292Z,92.00
2019-04-06T03:09:57.988Z,92.00
2019-04-06T03:12:31.845Z,92.00
2019-04-06T03:15:04.750Z,91.10
2019-04-06T03:17:37.574Z,91.70
2019-04-06T03:20:10.611Z,92.00
2019-04-06T03:22:43.408Z,92.00
2019-04-06T03:25:16.197Z,92.00
2019-04-06T03:27:48.994Z,92.00
2019-04-06T03:30:21.782Z,92.40
2019-04-06T03:32:54.618Z,92.60
2019-04-06T03:35:27.839Z,93.30
2019-04-06T03:38:00.751Z,93.00
2019-04-06T03:40:33.921Z,92.90
2019-04-06T03:43:06.739Z,92.40
2019-04-06T03:45:39.527Z,92.90
2019-04-06T03:48:12.369Z,92.90
2019-04-06T03:50:45.409Z,92.90
2019-04-06T03:53:18.301Z,92.90
2019-04-06T03:55:51.308Z,92.80
2019-04-06T03:58:24.199Z,92.70
2019-04-06T04:00:57.080Z,92.50
2019-04-06T04:03:29.919Z,92.50
2019-04-06T04:06:02.754Z,92.60
2019-04-06T04:08:36.928Z,92.70
2019-04-06T04:11:09.737Z,92.90
2019-04-06T04:13:42.585Z,93.10
2019-04-06T04:16:15.403Z,92.90
2019-04-06T04:18:48.225Z,93.10
2019-04-06T04:21:21.016Z,92.90
2019-04-06T04:23:54.118Z,92.70
2019-04-06T04:26:26.987Z,92.90
2019-04-06T04:28:59.985Z,92.80
2019-04-06T04:31:32.777Z,92.90
2019-04-06T04:34:05.823Z,93.00
2019-04-06T04:36:38.613Z,92.90
2019-04-06T04:39:11.553Z,92.90
2019-04-06T04:41:44.354Z,93.00
2019-04-06T04:44:17.245Z,92.90
2019-04-06T04:46:50.025Z,92.80
2019-04-06T04:49:22.830Z,92.30
2019-04-06T04:51:55.628Z,92.50
2019-04-06T04:54:28.401Z,92.90
2019-04-06T04:57:01.212Z,93.00
2019-04-06T04:59:34.028Z,93.00
2019-04-06T05:02:07.084Z,93.20
2019-04-06T05:04:40.047Z,93.10
2019-04-06T05:07:13.037Z,93.10
2019-04-06T05:09:45.863Z,92.80
2019-04-06T05:12:18.659Z,92.80
2019-04-06T05:15:03.279Z,92.50
2019-04-06T05:17:36.242Z,92.20
2019-04-06T05:20:10.825Z,92.50
2019-04-06T05:22:43.613Z,92.70
2019-04-06T05:25:16.420Z,94.00
2019-04-06T05:27:52.570Z,93.70
2019-04-06T05:30:24.207Z,93.40
2019-04-06T05:32:56.987Z,93.40
2019-04-06T05:35:29.795Z,93.50
2019-04-06T05:38:02.726Z,93.40
2019-04-06T05:40:35.762Z,91.60
2019-04-06T05:43:08.614Z,92.00
2019-04-06T05:45:41.445Z,91.40
2019-04-06T05:48:14.224Z,88.60
2019-04-06T05:50:47.121Z,90.60
2019-04-06T05:53:20.500Z,92.20
2019-04-06T05:55:53.496Z,90.40
2019-04-06T05:58:26.381Z,88.80
2019-04-06T06:00:59.368Z,88.00
2019-04-06T06:03:32.109Z,85.10
2019-04-06T06:06:04.978Z,80.50
2019-04-06T06:08:37.959Z,79.70
2019-04-06T06:11:10.814Z,77.40
2019-04-06T06:13:43.649Z,75.70
2019-04-06T06:16:16.464Z,74.50
2019-04-06T06:18:49.291Z,75.10
2019-04-06T06:21:22.177Z,76.30
2019-04-06T06:23:54.964Z,76.60
2019-04-06T06:26:27.917Z,76.40
2019-04-06T06:29:00.737Z,75.50
2019-04-06T06:31:33.661Z,75.20
2019-04-06T06:34:06.604Z,74.80
2019-04-06T06:36:39.458Z,72.80
2019-04-06T06:39:12.287Z,73.10
2019-04-06T06:41:45.108Z,73.30
2019-04-06T06:44:17.965Z,73.20
2019-04-06T06:46:51.015Z,72.70
2019-04-06T06:49:25.200Z,72.60
2019-04-06T06:51:58.237Z,71.80
2019-04-06T06:54:31.355Z,69.70
2019-04-06T06:57:04.201Z,70.70
2019-04-06T06:59:37.022Z,70.70
2019-04-06T07:02:09.839Z,69.80
2019-04-06T07:04:42.708Z,70.40
2019-04-06T07:07:15.539Z,70.60
2019-04-06T07:09:48.378Z,69.00
2019-04-06T07:12:21.187Z,67.40
2019-04-06T07:14:54.056Z,67.00
2019-04-06T07:17:28.019Z,68.20
2019-04-06T07:20:00.851Z,69.90
2019-04-06T07:22:33.685Z,70.30
2019-04-06T07:25:07.120Z,70.80
2019-04-06T07:27:40.163Z,71.30
2019-04-06T07:30:13.275Z,73.20
2019-04-06T07:32:46.041Z,73.50
2019-04-06T07:35:18.875Z,73.80
2019-04-06T07:37:51.702Z,76.10
2019-04-06T07:40:27.104Z,74.70
2019-04-06T07:43:00.037Z,73.80
2019-04-06T07:45:33.132Z,73.00
2019-04-06T07:48:06.037Z,74.30
2019-04-06T07:50:38.854Z,74.50
2019-04-06T07:53:11.694Z,75.50
2019-04-06T07:55:44.570Z,73.10
2019-04-06T07:58:17.429Z,72.70
2019-04-06T08:00:50.344Z,71.60
2019-04-06T08:03:23.195Z,72.20
2019-04-06T08:05:58.265Z,71.70
2019-04-06T08:08:31.230Z,71.20
2019-04-06T08:11:04.077Z,71.40
2019-04-06T08:13:37.090Z,69.80
2019-04-06T08:16:09.922Z,69.60
2019-04-06T08:18:42.942Z,69.20
2019-04-06T08:21:15.826Z,65.60
2019-04-06T08:23:48.696Z,63.60
2019-04-06T08:26:21.656Z,59.10
2019-04-06T08:29:01.822Z,56.60
2019-04-06T08:31:29.569Z,56.60
2019-04-06T08:34:02.710Z,53.30
2019-04-06T08:36:35.731Z,53.00
2019-04-06T08:39:08.680Z,53.60
2019-04-06T08:41:41.760Z,51.20
2019-04-06T08:44:14.919Z,52.50
2019-04-06T08:46:47.912Z,51.70
2019-04-06T08:49:20.968Z,52.50
2019-04-06T08:51:53.979Z,54.30
2019-04-06T08:54:26.990Z,53.80
2019-04-06T08:57:00.028Z,54.70
2019-04-06T08:59:33.358Z,54.50
2019-04-06T09:02:06.542Z,54.60
2019-04-06T09:04:39.791Z,57.20
2019-04-06T09:07:15.936Z,56.10
2019-04-06T09:09:48.932Z,56.10
2019-04-06T09:12:22.161Z,56.60
2019-04-06T09:14:55.561Z,58.00
2019-04-06T09:17:28.911Z,57.60
2019-04-06T09:20:02.172Z,55.10
2019-04-06T09:22:35.628Z,55.90
2019-04-06T09:25:09.192Z,55.00
2019-04-06T09:27:42.438Z,53.00
2019-04-06T09:30:15.629Z,52.50
2019-04-06T09:32:49.021Z,55.60
2019-04-06T09:35:22.610Z,56.30
2019-04-06T09:37:55.781Z,52.60
2019-04-06T09:40:28.979Z,51.90
2019-04-06T09:43:02.298Z,51.80
2019-04-06T09:45:55.583Z,53.80
2019-04-06T09:48:48.213Z,53.70
2019-04-06T09:51:40.832Z,55.50
2019-04-06T09:54:51.965Z,52.20
2019-04-06T09:57:34.214Z,53.70
2019-04-06T10:00:19.370Z,54.20
2019-04-06T10:03:05.663Z,55.00
2019-04-06T10:06:11.982Z,54.10
2019-04-06T10:09:06.159Z,53.20
2019-04-06T10:12:07.767Z,54.60
2019-04-06T10:14:59.595Z,53.40
2019-04-06T10:17:52.285Z,55.10
2019-04-06T10:20:34.716Z,55.40
2019-04-06T10:23:24.580Z,52.20
2019-04-06T10:26:17.169Z,51.30
2019-04-06T10:29:08.265Z,50.10
2019-04-06T10:32:03.661Z,49.60
2019-04-06T10:35:02.487Z,47.80
2019-04-06T10:37:51.632Z,48.00
2019-04-06T10:40:31.353Z,47.90
2019-04-06T10:43:19.801Z,48.50
2019-04-06T10:46:08.967Z,50.60
2019-04-06T10:48:57.195Z,48.40
2019-04-06T10:51:52.522Z,45.80
2019-04-06T10:54:48.174Z,47.80
2019-04-06T10:57:35.837Z,49.30
2019-04-06T11:00:31.396Z,48.40
2019-04-06T11:03:19.369Z,50.30
2019-04-06T11:06:07.128Z,47.80
2019-04-06T11:09:17.931Z,49.30
2019-04-06T11:12:09.245Z,52.50
2019-04-06T11:15:19.619Z,49.80
2019-04-06T11:18:27.196Z,49.10
2019-04-06T11:21:28.822Z,46.50
2019-04-06T11:24:17.233Z,49.30
2019-04-06T11:27:16.616Z,49.20
2019-04-06T11:30:13.704Z,50.40
2019-04-06T11:33:04.812Z,51.10
2019-04-06T11:35:52.401Z,49.70
2019-04-06T11:38:50.760Z,48.40
2019-04-06T11:41:54.559Z,51.00
2019-04-06T11:44:33.904Z,48.90
2019-04-06T11:47:29.148Z,51.20
2019-04-06T11:50:12.817Z,48.70
2019-04-06T11:53:04.873Z,51.70
2019-04-06T11:55:53.835Z,51.80
2019-04-06T11:58:35.284Z,50.40
2019-04-06T12:01:23.737Z,50.50
2019-04-06T12:04:25.214Z,50.30
2019-04-06T12:07:16.822Z,52.80
2019-04-06T12:09:55.118Z,52.50
2019-04-06T12:13:02.763Z,51.50
2019-04-06T12:15:41.151Z,51.10
2019-04-06T12:18:24.405Z,50.10
2019-04-06T12:21:05.703Z,49.90
2019-04-06T12:23:59.823Z,50.60
2019-04-06T12:27:07.266Z,51.10
2019-04-06T12:30:14.858Z,50.70
2019-04-06T12:33:06.007Z,51.80
2019-04-06T12:36:10.657Z,48.20
2019-04-06T12:38:58.369Z,49.70
2019-04-06T12:42:08.596Z,48.30
2019-04-06T12:45:01.618Z,47.00
2019-04-06T12:47:54.089Z,46.20
2019-04-06T12:50:38.326Z,46.20
2019-04-06T12:53:29.697Z,46.50
2019-04-06T12:56:21.084Z,47.10
2019-04-06T12:59:12.137Z,45.00
2019-04-06T13:02:08.210Z,45.90
2019-04-06T13:05:00.632Z,43.50
2019-04-06T13:07:49.217Z,43.10
2019-04-06T13:10:59.981Z,44.00
2019-04-06T13:13:52.653Z,44.50
2019-04-06T13:16:48.575Z,44.60
2019-04-06T13:19:31.537Z,44.00
2019-04-06T13:22:22.338Z,44.10
2019-04-06T13:25:05.643Z,43.40
2019-04-06T13:28:01.332Z,43.60
2019-04-06T13:31:01.773Z,43.60
2019-04-06T13:33:53.267Z,43.50
2019-04-06T13:36:47.532Z,43.10
2019-04-06T13:39:52.160Z,42.90
2019-04-06T13:42:43.821Z,42.60
2019-04-06T13:45:51.448Z,42.20
2019-04-06T13:48:35.666Z,43.10
2019-04-06T13:51:13.466Z,42.90
2019-04-06T13:54:08.812Z,43.70
2019-04-06T13:57:05.975Z,43.30
2019-04-06T13:59:55.482Z,42.90
2019-04-06T14:02:54.601Z,42.60
2019-04-06T14:05:36.740Z,42.50
2019-04-06T14:08:23.250Z,42.90
2019-04-06T14:11:06.576Z,43.20
2019-04-06T14:14:00.112Z,42.90
2019-04-06T14:16:44.484Z,42.30
2019-04-06T14:19:37.239Z,42.40
2019-04-06T14:22:25.669Z,42.70
2019-04-06T14:25:16.948Z,42.30
2019-04-06T14:28:04.306Z,42.20
2019-04-06T14:31:02.552Z,41.90
2019-04-06T14:33:52.034Z,41.90
2019-04-06T14:36:30.918Z,41.90
2019-04-06T14:39:24.638Z,42.50
2019-04-06T14:42:17.100Z,41.20
2019-04-06T14:45:02.378Z,42.50
2019-04-06T14:48:03.906Z,42.10
2019-04-06T14:50:45.611Z,42.40
2019-04-06T14:53:44.470Z,42.00
2019-04-06T14:56:55.367Z,41.60
2019-04-06T14:59:46.739Z,42.00
2019-04-06T15:02:49.587Z,41.50
2019-04-06T15:05:48.067Z,41.60
2019-04-06T15:08:32.617Z,42.20
2019-04-06T15:11:21.856Z,43.50
2019-04-06T15:14:17.071Z,43.10
2019-04-06T15:17:15.372Z,44.00
2019-04-06T15:19:55.510Z,45.80
2019-04-06T15:22:53.743Z,46.50
2019-04-06T15:25:39.016Z,47.60
2019-04-06T15:28:19.792Z,49.40
2019-04-06T15:31:11.110Z,50.50
2019-04-06T15:34:06.247Z,51.60
2019-04-06T15:36:45.839Z,48.70
2019-04-06T15:39:28.755Z,48.80
2019-04-06T15:42:24.282Z,48.20
2019-04-06T15:45:22.562Z,49.40
2019-04-06T15:48:18.067Z,48.70
2019-04-06T15:51:10.644Z,46.80
2019-04-06T15:54:12.493Z,49.50
2019-04-06T15:57:03.870Z,48.00
2019-04-06T15:59:59.243Z,47.40
2019-04-06T16:03:09.732Z,48.30
2019-04-06T16:05:58.191Z,52.10
2019-04-06T16:08:43.793Z,49.70
2019-04-06T16:11:48.166Z,49.70
2019-04-06T16:14:39.098Z,47.50
2019-04-06T16:17:37.945Z,48.70
2019-04-06T16:20:36.259Z,50.00
2019-04-06T16:23:34.724Z,49.20
2019-04-06T16:26:32.983Z,51.30
2019-04-06T16:29:17.763Z,48.60
2019-04-06T16:32:10.482Z,51.00
2019-04-06T16:34:43.796Z,48.90
2019-04-06T16:37:30.227Z,49.60
2019-04-06T16:40:14.733Z,51.10
2019-04-06T16:43:25.555Z,52.70
2019-04-06T16:46:21.400Z,49.00
2019-04-06T16:49:16.426Z,54.70
2019-04-06T16:52:08.788Z,54.30
2019-04-06T16:54:53.087Z,55.60
2019-04-06T16:57:39.153Z,58.10
2019-04-06T17:00:37.661Z,59.10
2019-04-06T17:03:28.633Z,57.90
2019-04-06T17:06:06.528Z,55.90
2019-04-06T17:08:59.001Z,57.40
2019-04-06T17:12:09.599Z,54.60
2019-04-06T17:14:54.429Z,54.90
2019-04-06T17:17:46.875Z,55.40
2019-04-06T17:20:37.989Z,57.40
2019-04-06T17:23:24.898Z,55.80
2019-04-06T17:26:30.776Z,55.00
2019-04-06T17:29:32.922Z,56.60
2019-04-06T17:32:35.453Z,57.90
2019-04-06T17:35:23.304Z,56.30
2019-04-06T17:38:14.673Z,56.10
2019-04-06T17:40:59.933Z,56.70
2019-04-06T17:43:52.536Z,56.20
2019-04-06T17:46:45.020Z,56.60
2019-04-06T17:49:36.284Z,56.30
2019-04-06T17:52:41.178Z,55.50
2019-04-06T17:55:21.383Z,56.80
2019-04-06T17:58:15.175Z,57.40
2019-04-06T18:00:58.235Z,57.80
2019-04-06T18:03:49.610Z,58.70
2019-04-06T18:06:39.379Z,59.80
2019-04-06T18:09:37.897Z,60.90
2019-04-06T18:12:24.141Z,61.50
2019-04-06T18:14:57.020Z,62.20
2019-04-06T18:17:30.008Z,62.40
2019-04-06T18:20:03.892Z,64.30
2019-04-06T18:22:37.899Z,64.90
2019-04-06T18:25:10.843Z,65.70
2019-04-06T18:27:43.691Z,66.30
2019-04-06T18:30:17.119Z,66.80
2019-04-06T18:33:01.038Z,66.80
2019-04-06T18:35:31.746Z,66.70
2019-04-06T18:38:14.037Z,66.80
2019-04-06T18:40:47.111Z,66.80
2019-04-06T18:43:19.935Z,67.10
2019-04-06T18:45:53.218Z,67.90
2019-04-06T18:48:26.072Z,68.60
2019-04-06T18:50:58.981Z,68.90
2019-04-06T18:53:32.134Z,68.60
2019-04-06T18:56:06.942Z,68.90
2019-04-06T18:58:39.943Z,68.60
2019-04-06T19:01:13.378Z,68.80
2019-04-06T19:03:46.382Z,68.40
2019-04-06T19:06:19.304Z,67.60
2019-04-06T19:08:52.495Z,67.80
2019-04-06T19:11:25.824Z,68.00
2019-04-06T19:13:59.013Z,68.40
2019-04-06T19:16:31.943Z,68.90
2019-04-06T19:19:04.980Z,69.00
2019-04-06T19:21:37.821Z,68.90
2019-04-06T19:24:11.201Z,68.80
2019-04-06T19:26:44.221Z,68.60
2019-04-06T19:29:17.266Z,68.30
2019-04-06T19:31:50.351Z,68.20
2019-04-06T19:34:23.217Z,68.20
2019-04-06T19:36:57.947Z,67.90
2019-04-06T19:39:30.811Z,68.40
2019-04-06T19:42:03.883Z,69.00
2019-04-06T19:44:37.245Z,70.20
2019-04-06T19:47:12.527Z,70.50
2019-04-06T19:49:45.673Z,70.60
2019-04-06T19:52:18.801Z,70.70
2019-04-06T19:54:52.225Z,70.10
2019-04-06T19:57:25.107Z,69.00
2019-04-06T19:59:57.972Z,67.60
2019-04-06T20:02:31.210Z,66.40
2019-04-06T20:05:06.142Z,65.70
2019-04-06T20:07:39.149Z,65.70
2019-04-06T20:10:12.182Z,66.00
2019-04-06T20:12:45.168Z,66.70
2019-04-06T20:15:18.566Z,68.00
2019-04-06T20:17:51.810Z,67.90
2019-04-06T20:20:24.713Z,68.10
2019-04-06T20:22:58.073Z,68.10
2019-04-06T20:25:31.095Z,68.10
2019-04-06T20:28:04.129Z,68.10
2019-04-06T20:30:37.544Z,68.50
2019-04-06T20:33:10.763Z,68.30
2019-04-06T20:35:44.012Z,68.50
2019-04-06T20:38:16.998Z,68.60
2019-04-06T20:40:49.828Z,68.40
2019-04-06T20:43:22.943Z,68.10
2019-04-06T20:45:55.802Z,69.20
2019-04-06T20:48:29.353Z,69.40
2019-04-06T20:51:02.687Z,70.00
2019-04-06T20:53:35.769Z,69.90
2019-04-06T20:56:08.639Z,71.00
2019-04-06T20:58:41.511Z,71.00
2019-04-06T21:01:14.733Z,71.20
2019-04-06T21:03:58.774Z,70.90
2019-04-06T21:06:22.271Z,70.70
2019-04-06T21:08:55.144Z,70.50
2019-04-06T21:11:28.004Z,70.30
2019-04-06T21:14:00.956Z,70.90
2019-04-06T21:16:34.313Z,71.80
2019-04-06T21:19:07.333Z,71.20
2019-04-06T21:21:40.436Z,71.20
2019-04-06T21:24:13.318Z,71.50
2019-04-06T21:26:46.802Z,71.90
2019-04-06T21:29:20.038Z,72.40
2019-04-06T21:31:52.906Z,72.60
2019-04-06T21:34:26.062Z,72.60
2019-04-06T21:36:59.204Z,72.50
2019-04-06T21:39:32.394Z,72.70
2019-04-06T21:42:05.695Z,72.70
2019-04-06T21:44:38.858Z,73.50
2019-04-06T21:47:12.153Z,73.20
2019-04-06T21:49:45.019Z,73.30
2019-04-06T21:52:18.083Z,73.00
2019-04-06T21:54:51.091Z,72.90
2019-04-06T21:57:24.519Z,74.00
2019-04-06T21:59:57.476Z,72.30
2019-04-06T22:02:30.827Z,73.40
2019-04-06T22:05:05.668Z,73.40
2019-04-06T22:07:48.685Z,73.00
2019-04-06T22:10:13.941Z,73.00
2019-04-06T22:12:46.864Z,72.50
2019-04-06T22:15:20.187Z,72.50
2019-04-06T22:17:53.336Z,73.00
2019-04-06T22:20:26.406Z,73.10
2019-04-06T22:22:59.397Z,72.90
2019-04-06T22:25:32.259Z,73.00
2019-04-06T22:28:05.130Z,73.40
2019-04-06T22:30:39.498Z,73.20
2019-04-06T22:33:12.869Z,73.70
2019-04-06T22:35:45.818Z,73.60
2019-04-06T22:38:18.795Z,73.80
2019-04-06T22:40:52.026Z,73.40
2019-04-06T22:43:25.018Z,72.60
2019-04-06T22:45:57.928Z,71.60
2019-04-06T22:48:30.873Z,71.30
2019-04-06T22:51:03.763Z,71.30
2019-04-06T22:53:36.574Z,71.00
2019-04-06T22:56:09.951Z,70.70
2019-04-06T22:58:42.851Z,70.60
2019-04-06T23:01:16.377Z,70.10
2019-04-06T23:04:11.386Z,70.10
2019-04-06T23:06:50.290Z,70.00
2019-04-06T23:09:23.178Z,69.80
2019-04-06T23:11:56.001Z,70.10
2019-04-06T23:14:28.949Z,70.40
2019-04-06T23:17:03.743Z,70.50
2019-04-06T23:19:38.588Z,70.60
2019-04-06T23:22:11.536Z,71.50
2019-04-06T23:24:44.686Z,71.00
2019-04-06T23:27:17.661Z,70.60
2019-04-06T23:29:50.840Z,71.30
2019-04-06T23:32:23.906Z,71.30
2019-04-06T23:35:01.201Z,71.90
2019-04-06T23:37:31.551Z,72.50
2019-04-06T23:40:05.398Z,72.60
2019-04-06T23:42:38.824Z,72.70
2019-04-06T23:45:12.743Z,73.00
2019-04-06T23:47:45.679Z,74.10
2019-04-06T23:50:18.787Z,73.40
2019-04-06T23:52:51.625Z,72.80
2019-04-06T23:55:24.776Z,73.60
2019-04-06T23:57:57.974Z,74.10
